Portada
METAR-TAF:

METAR-TAF

Aeroports :

Tabuk, Aràbia Saudita

latitud: 28-22N, longitud: 036-36E, altitud: 778 m

Observació

L'informe es va fer fa 40 minuts, a les 02:00 UTC
Vent 8 kt del Est
Temperatura 17°C
Humitat 82%
Pressió 1016 hPa
Visibilitat 10 km o més
Núvols disperses a una alçada de 4000 ft

METAR: OETB 150200Z 09008KT 9999 SCT040 17/14 Q1016 NOSIG

Hora: 05:40 (02:40 UTC)

Pronòstic

L'informe es va fer fa 3 hores i 40 minuts, a les 23:00 UTC
Pronòstic vàlid del 15 a les 00 UTC al 16 a les 06 UTC
Vent 3 kt amb direcció variable
Visibilitat 10 km o més
Escasses núvols a una alçada de 4000 ft
Núvols disperses a una alçada de 10000 ft
Evolucionant progressivament
l' 15 a les 06 UTC al 15 a les 08 UTC
Vent 10 kt del Oest/Sud-Oest
Evolucionant progressivament
l' 15 a les 11 UTC al 15 a les 13 UTC
Vent 10 kt del Nord/Nord-Oest

TAF: OETB 142300Z 1500/1606 VRB03KT 9999 FEW040 SCT100 BECMG 1506/1508 25010KT BECMG 1511/1513 33010KT

Observacions i pronòstics meteorològics de més de 4000 aeroports (METAR i TAF).

Les estacions disponibles són els punts grocs i vermells al mapa.

Posi el ratolí al punt desitjat per veure el nom de l'estació.

Feu clic per veure les observacions i els pronòstics meteorològics.

Per canviar el mapa: feu clic els botons verds amb una creu de color negre per apropar; al botó verd amb un guió per allunyar la imatge; o en les fletxes verdes per a mapes adjacents.


METAR-TAF: